sensor_id;sensor_type;location;lat;lon;timestamp;temperature;humidity
22290;DHT22;11313;50.116;8.424;2023-05-07T00:01:12;23.70;51.90
22290;DHT22;11313;50.116;8.424;2023-05-07T00:03:38;23.70;51.80
22290;DHT22;11313;50.116;8.424;2023-05-07T00:06:04;23.70;51.80
22290;DHT22;11313;50.116;8.424;2023-05-07T00:08:30;23.70;51.80
22290;DHT22;11313;50.116;8.424;2023-05-07T00:10:55;23.80;51.80
22290;DHT22;11313;50.116;8.424;2023-05-07T00:13:21;23.70;51.80
22290;DHT22;11313;50.116;8.424;2023-05-07T00:15:46;23.70;51.70
22290;DHT22;11313;50.116;8.424;2023-05-07T00:18:12;23.80;51.70
22290;DHT22;11313;50.116;8.424;2023-05-07T00:20:37;23.80;51.70
22290;DHT22;11313;50.116;8.424;2023-05-07T00:23:03;23.80;51.60
22290;DHT22;11313;50.116;8.424;2023-05-07T00:25:28;23.80;51.50
22290;DHT22;11313;50.116;8.424;2023-05-07T00:27:54;23.80;51.60
22290;DHT22;11313;50.116;8.424;2023-05-07T00:30:20;23.80;51.50
22290;DHT22;11313;50.116;8.424;2023-05-07T00:32:45;23.80;51.90
22290;DHT22;11313;50.116;8.424;2023-05-07T00:35:11;23.80;51.50
22290;DHT22;11313;50.116;8.424;2023-05-07T00:37:37;23.80;51.50
22290;DHT22;11313;50.116;8.424;2023-05-07T00:40:02;23.90;51.50
22290;DHT22;11313;50.116;8.424;2023-05-07T00:42:30;23.90;51.40
22290;DHT22;11313;50.116;8.424;2023-05-07T00:44:57;23.90;51.40
22290;DHT22;11313;50.116;8.424;2023-05-07T00:47:23;23.90;51.30
22290;DHT22;11313;50.116;8.424;2023-05-07T00:49:50;24.00;51.30
22290;DHT22;11313;50.116;8.424;2023-05-07T00:52:16;23.90;51.20
22290;DHT22;11313;50.116;8.424;2023-05-07T00:54:42;24.00;51.20
22290;DHT22;11313;50.116;8.424;2023-05-07T00:57:09;24.00;51.10
22290;DHT22;11313;50.116;8.424;2023-05-07T00:59:36;24.00;51.10
22290;DHT22;11313;50.116;8.424;2023-05-07T01:02:02;24.00;51.10
22290;DHT22;11313;50.116;8.424;2023-05-07T01:04:27;24.00;51.10
22290;DHT22;11313;50.116;8.424;2023-05-07T01:06:55;24.00;51.10
22290;DHT22;11313;50.116;8.424;2023-05-07T01:09:22;24.00;51.00
22290;DHT22;11313;50.116;8.424;2023-05-07T01:11:49;24.00;51.00
22290;DHT22;11313;50.116;8.424;2023-05-07T01:14:16;24.10;51.10
22290;DHT22;11313;50.116;8.424;2023-05-07T01:16:42;24.00;51.10
22290;DHT22;11313;50.116;8.424;2023-05-07T01:19:08;24.00;51.10
22290;DHT22;11313;50.116;8.424;2023-05-07T01:21:37;24.00;51.00
22290;DHT22;11313;50.116;8.424;2023-05-07T01:24:04;24.00;50.90
22290;DHT22;11313;50.116;8.424;2023-05-07T01:26:30;24.00;51.40
22290;DHT22;11313;50.116;8.424;2023-05-07T01:28:55;24.00;50.80
22290;DHT22;11313;50.116;8.424;2023-05-07T01:31:22;23.90;50.70
22290;DHT22;11313;50.116;8.424;2023-05-07T01:33:49;24.00;50.60
22290;DHT22;11313;50.116;8.424;2023-05-07T01:36:17;23.90;50.60
22290;DHT22;11313;50.116;8.424;2023-05-07T01:38:44;23.90;50.60
22290;DHT22;11313;50.116;8.424;2023-05-07T01:41:11;24.00;50.60
22290;DHT22;11313;50.116;8.424;2023-05-07T01:43:37;23.90;50.50
22290;DHT22;11313;50.116;8.424;2023-05-07T01:46:03;24.00;50.60
22290;DHT22;11313;50.116;8.424;2023-05-07T01:48:29;23.90;50.50
22290;DHT22;11313;50.116;8.424;2023-05-07T01:50:55;23.90;50.50
22290;DHT22;11313;50.116;8.424;2023-05-07T01:53:21;23.90;50.40
22290;DHT22;11313;50.116;8.424;2023-05-07T01:55:47;23.90;50.40
22290;DHT22;11313;50.116;8.424;2023-05-07T01:58:12;23.90;50.40
22290;DHT22;11313;50.116;8.424;2023-05-07T02:00:38;23.90;50.40
22290;DHT22;11313;50.116;8.424;2023-05-07T02:03:03;23.90;50.40
22290;DHT22;11313;50.116;8.424;2023-05-07T02:05:29;23.90;50.40
22290;DHT22;11313;50.116;8.424;2023-05-07T02:07:55;23.90;50.40
22290;DHT22;11313;50.116;8.424;2023-05-07T02:10:20;23.90;50.30
22290;DHT22;11313;50.116;8.424;2023-05-07T02:12:46;23.90;50.30
22290;DHT22;11313;50.116;8.424;2023-05-07T02:15:11;23.90;50.20
22290;DHT22;11313;50.116;8.424;2023-05-07T02:18:05;23.90;50.20
22290;DHT22;11313;50.116;8.424;2023-05-07T02:20:31;23.90;50.20
22290;DHT22;11313;50.116;8.424;2023-05-07T02:22:57;23.90;50.20
22290;DHT22;11313;50.116;8.424;2023-05-07T02:25:22;23.90;50.20
22290;DHT22;11313;50.116;8.424;2023-05-07T02:27:48;23.90;50.20
22290;DHT22;11313;50.116;8.424;2023-05-07T02:30:14;23.90;50.10
22290;DHT22;11313;50.116;8.424;2023-05-07T02:32:39;23.90;50.20
22290;DHT22;11313;50.116;8.424;2023-05-07T02:35:05;23.90;50.20
22290;DHT22;11313;50.116;8.424;2023-05-07T02:37:33;23.90;50.10
22290;DHT22;11313;50.116;8.424;2023-05-07T02:39:59;23.90;50.10
22290;DHT22;11313;50.116;8.424;2023-05-07T02:42:24;23.90;50.10
22290;DHT22;11313;50.116;8.424;2023-05-07T02:44:50;23.90;50.10
22290;DHT22;11313;50.116;8.424;2023-05-07T02:47:15;23.90;50.00
22290;DHT22;11313;50.116;8.424;2023-05-07T02:49:41;23.90;50.10
22290;DHT22;11313;50.116;8.424;2023-05-07T02:52:07;23.90;50.00
22290;DHT22;11313;50.116;8.424;2023-05-07T02:54:32;23.90;50.00
22290;DHT22;11313;50.116;8.424;2023-05-07T02:56:58;23.90;50.00
22290;DHT22;11313;50.116;8.424;2023-05-07T02:59:24;23.90;50.00
22290;DHT22;11313;50.116;8.424;2023-05-07T03:01:51;23.80;49.90
22290;DHT22;11313;50.116;8.424;2023-05-07T03:04:16;23.90;50.00
22290;DHT22;11313;50.116;8.424;2023-05-07T03:06:42;23.80;49.90
22290;DHT22;11313;50.116;8.424;2023-05-07T03:09:07;23.90;49.90
22290;DHT22;11313;50.116;8.424;2023-05-07T03:11:33;23.80;49.80
22290;DHT22;11313;50.116;8.424;2023-05-07T03:14:01;23.90;49.90
22290;DHT22;11313;50.116;8.424;2023-05-07T03:16:26;23.90;49.90
22290;DHT22;11313;50.116;8.424;2023-05-07T03:18:52;23.90;49.90
22290;DHT22;11313;50.116;8.424;2023-05-07T03:21:18;23.90;49.90
22290;DHT22;11313;50.116;8.424;2023-05-07T03:23:43;23.80;49.80
22290;DHT22;11313;50.116;8.424;2023-05-07T03:26:09;23.90;49.80
22290;DHT22;11313;50.116;8.424;2023-05-07T03:28:34;23.80;49.80
22290;DHT22;11313;50.116;8.424;2023-05-07T03:31:00;23.80;49.70
22290;DHT22;11313;50.116;8.424;2023-05-07T03:33:25;23.80;49.70
22290;DHT22;11313;50.116;8.424;2023-05-07T03:35:52;23.80;49.70
22290;DHT22;11313;50.116;8.424;2023-05-07T03:38:18;23.80;49.70
22290;DHT22;11313;50.116;8.424;2023-05-07T03:40:43;23.80;49.60
22290;DHT22;11313;50.116;8.424;2023-05-07T03:43:09;23.80;49.70
22290;DHT22;11313;50.116;8.424;2023-05-07T03:45:35;23.80;49.70
22290;DHT22;11313;50.116;8.424;2023-05-07T03:48:00;23.80;49.60
22290;DHT22;11313;50.116;8.424;2023-05-07T03:50:26;23.80;49.60
22290;DHT22;11313;50.116;8.424;2023-05-07T03:52:51;23.80;49.50
22290;DHT22;11313;50.116;8.424;2023-05-07T03:55:17;23.80;49.60
22290;DHT22;11313;50.116;8.424;2023-05-07T03:57:43;23.80;49.50
22290;DHT22;11313;50.116;8.424;2023-05-07T04:00:09;23.80;49.60
22290;DHT22;11313;50.116;8.424;2023-05-07T04:02:34;23.80;49.50
22290;DHT22;11313;50.116;8.424;2023-05-07T04:05:00;23.80;49.50
22290;DHT22;11313;50.116;8.424;2023-05-07T04:07:25;23.80;49.50
22290;DHT22;11313;50.116;8.424;2023-05-07T04:09:51;23.80;49.50
22290;DHT22;11313;50.116;8.424;2023-05-07T04:12:16;23.80;49.50
22290;DHT22;11313;50.116;8.424;2023-05-07T04:14:42;23.80;49.50
22290;DHT22;11313;50.116;8.424;2023-05-07T04:17:07;23.80;49.40
22290;DHT22;11313;50.116;8.424;2023-05-07T04:19:35;23.80;49.50
22290;DHT22;11313;50.116;8.424;2023-05-07T04:22:00;23.80;49.40
22290;DHT22;11313;50.116;8.424;2023-05-07T04:24:26;23.80;49.40
22290;DHT22;11313;50.116;8.424;2023-05-07T04:26:51;23.80;49.40
22290;DHT22;11313;50.116;8.424;2023-05-07T04:29:18;23.80;49.40
22290;DHT22;11313;50.116;8.424;2023-05-07T04:31:43;23.80;49.40
22290;DHT22;11313;50.116;8.424;2023-05-07T04:34:10;23.80;49.40
22290;DHT22;11313;50.116;8.424;2023-05-07T04:36:37;23.80;49.30
22290;DHT22;11313;50.116;8.424;2023-05-07T04:39:03;23.80;49.40
22290;DHT22;11313;50.116;8.424;2023-05-07T04:41:29;23.80;49.40
22290;DHT22;11313;50.116;8.424;2023-05-07T04:43:54;23.80;49.30
22290;DHT22;11313;50.116;8.424;2023-05-07T04:46:20;23.80;49.30
22290;DHT22;11313;50.116;8.424;2023-05-07T04:48:46;23.80;49.30
22290;DHT22;11313;50.116;8.424;2023-05-07T04:51:11;23.80;49.30
22290;DHT22;11313;50.116;8.424;2023-05-07T04:53:37;23.80;49.30
22290;DHT22;11313;50.116;8.424;2023-05-07T04:56:03;23.80;49.30
22290;DHT22;11313;50.116;8.424;2023-05-07T04:58:28;23.80;49.30
22290;DHT22;11313;50.116;8.424;2023-05-07T05:00:57;23.70;49.30
22290;DHT22;11313;50.116;8.424;2023-05-07T05:03:22;23.70;49.20
22290;DHT22;11313;50.116;8.424;2023-05-07T05:05:50;23.80;49.30
22290;DHT22;11313;50.116;8.424;2023-05-07T05:08:17;23.80;49.30
22290;DHT22;11313;50.116;8.424;2023-05-07T05:10:43;23.80;49.30
22290;DHT22;11313;50.116;8.424;2023-05-07T05:13:09;23.80;49.20
22290;DHT22;11313;50.116;8.424;2023-05-07T05:15:34;23.80;49.20
22290;DHT22;11313;50.116;8.424;2023-05-07T05:18:00;23.80;49.20
22290;DHT22;11313;50.116;8.424;2023-05-07T05:20:26;23.80;49.20
22290;DHT22;11313;50.116;8.424;2023-05-07T05:22:51;23.80;49.20
22290;DHT22;11313;50.116;8.424;2023-05-07T05:25:17;23.80;49.20
22290;DHT22;11313;50.116;8.424;2023-05-07T05:27:42;23.80;49.20
22290;DHT22;11313;50.116;8.424;2023-05-07T05:30:08;23.80;49.20
22290;DHT22;11313;50.116;8.424;2023-05-07T05:32:34;23.70;49.20
22290;DHT22;11313;50.116;8.424;2023-05-07T05:35:00;23.80;49.20
22290;DHT22;11313;50.116;8.424;2023-05-07T05:37:25;23.80;49.20
22290;DHT22;11313;50.116;8.424;2023-05-07T05:39:52;23.80;49.20
22290;DHT22;11313;50.116;8.424;2023-05-07T05:42:20;23.80;49.20
22290;DHT22;11313;50.116;8.424;2023-05-07T05:44:45;23.70;49.10
22290;DHT22;11313;50.116;8.424;2023-05-07T05:47:11;23.70;49.10
22290;DHT22;11313;50.116;8.424;2023-05-07T05:49:36;23.80;49.10
22290;DHT22;11313;50.116;8.424;2023-05-07T05:52:02;23.70;49.10
22290;DHT22;11313;50.116;8.424;2023-05-07T05:54:27;23.80;49.10
22290;DHT22;11313;50.116;8.424;2023-05-07T05:56:53;23.80;49.20
22290;DHT22;11313;50.116;8.424;2023-05-07T05:59:18;23.70;49.10
22290;DHT22;11313;50.116;8.424;2023-05-07T06:01:44;23.80;49.10
22290;DHT22;11313;50.116;8.424;2023-05-07T06:04:09;23.70;49.10
22290;DHT22;11313;50.116;8.424;2023-05-07T06:06:35;23.80;49.10
22290;DHT22;11313;50.116;8.424;2023-05-07T06:09:00;23.80;49.20
22290;DHT22;11313;50.116;8.424;2023-05-07T06:11:26;23.80;49.10
22290;DHT22;11313;50.116;8.424;2023-05-07T06:13:51;23.80;49.10
22290;DHT22;11313;50.116;8.424;2023-05-07T06:16:17;23.80;49.10
22290;DHT22;11313;50.116;8.424;2023-05-07T06:18:42;23.80;49.10
22290;DHT22;11313;50.116;8.424;2023-05-07T06:21:09;23.80;49.10
22290;DHT22;11313;50.116;8.424;2023-05-07T06:23:35;23.80;49.10
22290;DHT22;11313;50.116;8.424;2023-05-07T06:26:00;23.80;49.10
22290;DHT22;11313;50.116;8.424;2023-05-07T06:28:26;23.80;49.10
22290;DHT22;11313;50.116;8.424;2023-05-07T06:30:52;23.80;49.00
22290;DHT22;11313;50.116;8.424;2023-05-07T06:33:18;23.80;49.00
22290;DHT22;11313;50.116;8.424;2023-05-07T06:35:44;23.80;49.10
22290;DHT22;11313;50.116;8.424;2023-05-07T06:38:10;23.80;49.00
22290;DHT22;11313;50.116;8.424;2023-05-07T06:40:37;23.80;49.00
22290;DHT22;11313;50.116;8.424;2023-05-07T06:43:03;23.80;49.00
22290;DHT22;11313;50.116;8.424;2023-05-07T06:45:28;23.80;49.10
22290;DHT22;11313;50.116;8.424;2023-05-07T06:47:53;23.80;49.00
22290;DHT22;11313;50.116;8.424;2023-05-07T06:50:19;23.80;49.10
22290;DHT22;11313;50.116;8.424;2023-05-07T06:52:44;23.80;49.00
22290;DHT22;11313;50.116;8.424;2023-05-07T06:55:10;23.80;49.10
22290;DHT22;11313;50.116;8.424;2023-05-07T06:57:37;23.80;49.00
22290;DHT22;11313;50.116;8.424;2023-05-07T07:00:04;23.80;49.00
22290;DHT22;11313;50.116;8.424;2023-05-07T07:02:32;23.80;49.00
22290;DHT22;11313;50.116;8.424;2023-05-07T07:04:57;23.80;49.00
22290;DHT22;11313;50.116;8.424;2023-05-07T07:07:23;23.80;49.00
22290;DHT22;11313;50.116;8.424;2023-05-07T07:09:49;23.80;48.90
22290;DHT22;11313;50.116;8.424;2023-05-07T07:12:14;23.80;48.90
22290;DHT22;11313;50.116;8.424;2023-05-07T07:14:40;23.80;48.90
22290;DHT22;11313;50.116;8.424;2023-05-07T07:17:05;23.80;48.90
22290;DHT22;11313;50.116;8.424;2023-05-07T07:19:31;23.80;48.90
22290;DHT22;11313;50.116;8.424;2023-05-07T07:21:56;23.80;48.90
22290;DHT22;11313;50.116;8.424;2023-05-07T07:24:22;23.80;48.90
22290;DHT22;11313;50.116;8.424;2023-05-07T07:26:47;23.80;48.90
22290;DHT22;11313;50.116;8.424;2023-05-07T07:29:13;23.80;48.90
22290;DHT22;11313;50.116;8.424;2023-05-07T07:31:39;23.80;48.90
22290;DHT22;11313;50.116;8.424;2023-05-07T07:34:04;23.80;48.80
22290;DHT22;11313;50.116;8.424;2023-05-07T07:36:30;23.80;48.90
22290;DHT22;11313;50.116;8.424;2023-05-07T07:38:55;23.80;48.80
22290;DHT22;11313;50.116;8.424;2023-05-07T07:41:21;23.80;48.80
22290;DHT22;11313;50.116;8.424;2023-05-07T07:43:46;23.80;48.80
22290;DHT22;11313;50.116;8.424;2023-05-07T07:46:12;23.80;48.80
22290;DHT22;11313;50.116;8.424;2023-05-07T07:48:38;23.80;48.80
22290;DHT22;11313;50.116;8.424;2023-05-07T07:51:03;23.80;48.80
22290;DHT22;11313;50.116;8.424;2023-05-07T07:53:29;23.80;48.80
22290;DHT22;11313;50.116;8.424;2023-05-07T07:55:55;23.80;48.90
22290;DHT22;11313;50.116;8.424;2023-05-07T07:58:21;23.80;48.80
22290;DHT22;11313;50.116;8.424;2023-05-07T08:00:47;23.80;48.80
22290;DHT22;11313;50.116;8.424;2023-05-07T08:03:13;23.80;48.80
22290;DHT22;11313;50.116;8.424;2023-05-07T08:05:39;23.80;48.80
22290;DHT22;11313;50.116;8.424;2023-05-07T08:08:05;23.80;48.70
22290;DHT22;11313;50.116;8.424;2023-05-07T08:10:31;23.80;48.70
22290;DHT22;11313;50.116;8.424;2023-05-07T08:13:00;23.80;48.70
22290;DHT22;11313;50.116;8.424;2023-05-07T08:15:25;23.80;48.70
22290;DHT22;11313;50.116;8.424;2023-05-07T08:17:51;23.80;48.70
22290;DHT22;11313;50.116;8.424;2023-05-07T08:20:16;23.80;48.70
22290;DHT22;11313;50.116;8.424;2023-05-07T08:22:42;23.80;48.70
22290;DHT22;11313;50.116;8.424;2023-05-07T08:25:08;23.80;48.70
22290;DHT22;11313;50.116;8.424;2023-05-07T08:27:33;23.80;48.70
22290;DHT22;11313;50.116;8.424;2023-05-07T08:29:59;23.80;48.70
22290;DHT22;11313;50.116;8.424;2023-05-07T08:32:24;23.80;48.70
22290;DHT22;11313;50.116;8.424;2023-05-07T08:34:50;23.80;48.60
22290;DHT22;11313;50.116;8.424;2023-05-07T08:37:16;23.80;48.60
22290;DHT22;11313;50.116;8.424;2023-05-07T08:39:41;23.80;48.60
22290;DHT22;11313;50.116;8.424;2023-05-07T08:42:09;23.80;48.60
22290;DHT22;11313;50.116;8.424;2023-05-07T08:44:38;23.80;48.60
22290;DHT22;11313;50.116;8.424;2023-05-07T08:47:06;23.80;48.60
22290;DHT22;11313;50.116;8.424;2023-05-07T08:49:33;23.80;48.60
22290;DHT22;11313;50.116;8.424;2023-05-07T08:51:59;23.80;48.60
22290;DHT22;11313;50.116;8.424;2023-05-07T08:54:25;23.80;48.60
22290;DHT22;11313;50.116;8.424;2023-05-07T08:56:51;23.80;48.60
22290;DHT22;11313;50.116;8.424;2023-05-07T08:59:16;23.80;48.60
22290;DHT22;11313;50.116;8.424;2023-05-07T09:01:42;23.80;48.60
22290;DHT22;11313;50.116;8.424;2023-05-07T09:04:07;23.80;48.70
22290;DHT22;11313;50.116;8.424;2023-05-07T09:06:34;23.80;48.70
22290;DHT22;11313;50.116;8.424;2023-05-07T09:09:00;23.80;48.70
22290;DHT22;11313;50.116;8.424;2023-05-07T09:11:27;23.80;48.70
22290;DHT22;11313;50.116;8.424;2023-05-07T09:13:56;23.80;48.70
22290;DHT22;11313;50.116;8.424;2023-05-07T09:16:23;23.80;48.70
22290;DHT22;11313;50.116;8.424;2023-05-07T09:18:52;23.80;48.60
22290;DHT22;11313;50.116;8.424;2023-05-07T09:21:18;23.80;48.70
22290;DHT22;11313;50.116;8.424;2023-05-07T09:23:44;23.80;48.60
22290;DHT22;11313;50.116;8.424;2023-05-07T09:26:10;23.80;48.60
22290;DHT22;11313;50.116;8.424;2023-05-07T09:28:41;23.80;48.60
22290;DHT22;11313;50.116;8.424;2023-05-07T09:31:07;23.80;48.70
22290;DHT22;11313;50.116;8.424;2023-05-07T09:33:34;23.80;48.60
22290;DHT22;11313;50.116;8.424;2023-05-07T09:36:05;23.80;48.60
22290;DHT22;11313;50.116;8.424;2023-05-07T09:38:32;23.80;48.60
22290;DHT22;11313;50.116;8.424;2023-05-07T09:41:02;23.80;48.70
22290;DHT22;11313;50.116;8.424;2023-05-07T09:43:32;23.80;48.60
22290;DHT22;11313;50.116;8.424;2023-05-07T09:45:59;23.80;48.70
22290;DHT22;11313;50.116;8.424;2023-05-07T09:48:27;23.80;48.60
22290;DHT22;11313;50.116;8.424;2023-05-07T09:50:55;23.80;48.60
22290;DHT22;11313;50.116;8.424;2023-05-07T09:53:24;23.80;48.80
22290;DHT22;11313;50.116;8.424;2023-05-07T09:55:51;23.80;48.60
22290;DHT22;11313;50.116;8.424;2023-05-07T09:58:18;23.80;48.60
22290;DHT22;11313;50.116;8.424;2023-05-07T10:00:44;23.80;48.60
22290;DHT22;11313;50.116;8.424;2023-05-07T10:03:11;23.80;48.60
22290;DHT22;11313;50.116;8.424;2023-05-07T10:05:38;23.80;48.60
22290;DHT22;11313;50.116;8.424;2023-05-07T10:08:04;23.80;48.60
22290;DHT22;11313;50.116;8.424;2023-05-07T10:10:32;23.80;48.60
22290;DHT22;11313;50.116;8.424;2023-05-07T10:12:58;23.80;48.60
22290;DHT22;11313;50.116;8.424;2023-05-07T10:15:23;23.80;48.50
22290;DHT22;11313;50.116;8.424;2023-05-07T10:17:51;23.80;48.50
22290;DHT22;11313;50.116;8.424;2023-05-07T10:20:18;23.80;48.60
22290;DHT22;11313;50.116;8.424;2023-05-07T10:22:47;23.80;48.60
22290;DHT22;11313;50.116;8.424;2023-05-07T10:25:19;23.80;48.60
22290;DHT22;11313;50.116;8.424;2023-05-07T10:27:47;23.80;48.50
22290;DHT22;11313;50.116;8.424;2023-05-07T10:32:53;23.80;48.60
22290;DHT22;11313;50.116;8.424;2023-05-07T10:35:26;23.80;48.60
22290;DHT22;11313;50.116;8.424;2023-05-07T10:37:52;23.80;48.60
22290;DHT22;11313;50.116;8.424;2023-05-07T10:40:19;23.80;48.60
22290;DHT22;11313;50.116;8.424;2023-05-07T10:42:58;23.80;48.50
22290;DHT22;11313;50.116;8.424;2023-05-07T10:45:25;23.80;48.60
22290;DHT22;11313;50.116;8.424;2023-05-07T10:48:08;23.80;48.60
22290;DHT22;11313;50.116;8.424;2023-05-07T10:50:34;23.80;48.60
22290;DHT22;11313;50.116;8.424;2023-05-07T10:55:44;23.90;48.70
22290;DHT22;11313;50.116;8.424;2023-05-07T10:58:25;23.80;48.60
22290;DHT22;11313;50.116;8.424;2023-05-07T11:00:57;23.80;48.70
22290;DHT22;11313;50.116;8.424;2023-05-07T11:03:23;23.80;48.60
22290;DHT22;11313;50.116;8.424;2023-05-07T11:08:56;23.90;48.70
22290;DHT22;11313;50.116;8.424;2023-05-07T11:11:48;23.80;48.60
22290;DHT22;11313;50.116;8.424;2023-05-07T11:17:11;23.90;48.70
22290;DHT22;11313;50.116;8.424;2023-05-07T11:19:53;23.80;48.60
22290;DHT22;11313;50.116;8.424;2023-05-07T11:24:59;23.90;48.70
22290;DHT22;11313;50.116;8.424;2023-05-07T11:27:26;23.90;48.80
22290;DHT22;11313;50.116;8.424;2023-05-07T11:29:52;23.90;48.70
22290;DHT22;11313;50.116;8.424;2023-05-07T11:34:53;23.90;48.80
22290;DHT22;11313;50.116;8.424;2023-05-07T11:37:19;23.90;48.70
22290;DHT22;11313;50.116;8.424;2023-05-07T11:39:45;23.90;48.80
22290;DHT22;11313;50.116;8.424;2023-05-07T11:42:31;23.90;48.70
22290;DHT22;11313;50.116;8.424;2023-05-07T11:44:57;23.90;48.70
22290;DHT22;11313;50.116;8.424;2023-05-07T11:47:24;23.90;48.70
22290;DHT22;11313;50.116;8.424;2023-05-07T11:49:52;23.90;48.70
22290;DHT22;11313;50.116;8.424;2023-05-07T11:52:20;23.90;48.70
22290;DHT22;11313;50.116;8.424;2023-05-07T11:54:55;23.90;48.70
22290;DHT22;11313;50.116;8.424;2023-05-07T11:57:22;23.90;49.40
22290;DHT22;11313;50.116;8.424;2023-05-07T11:59:48;23.90;48.70
22290;DHT22;11313;50.116;8.424;2023-05-07T12:02:18;23.90;48.70
22290;DHT22;11313;50.116;8.424;2023-05-07T12:04:44;23.90;48.70
22290;DHT22;11313;50.116;8.424;2023-05-07T12:07:15;23.90;48.70
22290;DHT22;11313;50.116;8.424;2023-05-07T12:09:42;23.90;48.70
22290;DHT22;11313;50.116;8.424;2023-05-07T12:12:08;23.90;48.70
22290;DHT22;11313;50.116;8.424;2023-05-07T12:14:41;23.90;48.70
22290;DHT22;11313;50.116;8.424;2023-05-07T12:17:08;23.90;48.70
22290;DHT22;11313;50.116;8.424;2023-05-07T12:19:34;23.90;48.70
22290;DHT22;11313;50.116;8.424;2023-05-07T12:22:02;23.90;48.70
22290;DHT22;11313;50.116;8.424;2023-05-07T12:24:28;23.90;48.70
22290;DHT22;11313;50.116;8.424;2023-05-07T12:26:53;23.90;48.70
22290;DHT22;11313;50.116;8.424;2023-05-07T12:29:23;23.90;48.70
22290;DHT22;11313;50.116;8.424;2023-05-07T12:31:52;23.90;48.70
22290;DHT22;11313;50.116;8.424;2023-05-07T12:34:18;23.90;48.70
22290;DHT22;11313;50.116;8.424;2023-05-07T12:36:43;23.90;48.70
22290;DHT22;11313;50.116;8.424;2023-05-07T12:39:09;23.90;48.60
22290;DHT22;11313;50.116;8.424;2023-05-07T12:44:25;23.90;48.70
22290;DHT22;11313;50.116;8.424;2023-05-07T12:46:51;23.90;48.70
22290;DHT22;11313;50.116;8.424;2023-05-07T12:49:17;23.90;48.70
22290;DHT22;11313;50.116;8.424;2023-05-07T12:51:47;23.90;48.70
22290;DHT22;11313;50.116;8.424;2023-05-07T12:54:13;23.90;48.60
22290;DHT22;11313;50.116;8.424;2023-05-07T12:56:39;23.90;48.60
22290;DHT22;11313;50.116;8.424;2023-05-07T12:59:05;23.90;48.60
22290;DHT22;11313;50.116;8.424;2023-05-07T13:01:31;23.90;48.70
22290;DHT22;11313;50.116;8.424;2023-05-07T13:04:01;23.90;48.70
22290;DHT22;11313;50.116;8.424;2023-05-07T13:06:27;23.90;48.70
22290;DHT22;11313;50.116;8.424;2023-05-07T13:08:53;23.90;48.70
22290;DHT22;11313;50.116;8.424;2023-05-07T13:11:19;23.90;48.70
22290;DHT22;11313;50.116;8.424;2023-05-07T13:13:44;23.90;48.70
22290;DHT22;11313;50.116;8.424;2023-05-07T13:16:10;23.90;48.70
22290;DHT22;11313;50.116;8.424;2023-05-07T13:18:38;23.90;48.70
22290;DHT22;11313;50.116;8.424;2023-05-07T13:21:04;23.90;48.80
22290;DHT22;11313;50.116;8.424;2023-05-07T13:23:30;23.90;48.80
22290;DHT22;11313;50.116;8.424;2023-05-07T13:25:55;23.90;48.80
22290;DHT22;11313;50.116;8.424;2023-05-07T13:28:24;23.90;48.80
22290;DHT22;11313;50.116;8.424;2023-05-07T13:30:51;23.90;48.80
22290;DHT22;11313;50.116;8.424;2023-05-07T13:33:17;23.90;49.40
22290;DHT22;11313;50.116;8.424;2023-05-07T13:35:43;23.90;48.80
22290;DHT22;11313;50.116;8.424;2023-05-07T13:38:08;23.90;48.80
22290;DHT22;11313;50.116;8.424;2023-05-07T13:40:34;23.90;48.80
22290;DHT22;11313;50.116;8.424;2023-05-07T13:43:00;23.90;48.80
22290;DHT22;11313;50.116;8.424;2023-05-07T13:45:36;23.90;48.90
22290;DHT22;11313;50.116;8.424;2023-05-07T13:48:01;23.90;48.90
22290;DHT22;11313;50.116;8.424;2023-05-07T13:50:27;23.90;48.80
22290;DHT22;11313;50.116;8.424;2023-05-07T13:52:54;24.00;48.90
22290;DHT22;11313;50.116;8.424;2023-05-07T13:55:21;23.90;48.80
22290;DHT22;11313;50.116;8.424;2023-05-07T13:57:47;23.90;48.80
22290;DHT22;11313;50.116;8.424;2023-05-07T14:00:13;24.00;48.90
22290;DHT22;11313;50.116;8.424;2023-05-07T14:02:40;23.90;48.80
22290;DHT22;11313;50.116;8.424;2023-05-07T14:05:06;23.90;48.80
22290;DHT22;11313;50.116;8.424;2023-05-07T14:07:32;24.00;48.90
22290;DHT22;11313;50.116;8.424;2023-05-07T14:09:57;24.00;48.90
22290;DHT22;11313;50.116;8.424;2023-05-07T14:12:23;23.90;48.80
22290;DHT22;11313;50.116;8.424;2023-05-07T14:14:49;23.90;48.90
22290;DHT22;11313;50.116;8.424;2023-05-07T14:17:16;23.90;48.90
22290;DHT22;11313;50.116;8.424;2023-05-07T14:19:42;24.00;48.90
22290;DHT22;11313;50.116;8.424;2023-05-07T14:22:07;24.00;48.90
22290;DHT22;11313;50.116;8.424;2023-05-07T14:24:33;24.00;48.90
22290;DHT22;11313;50.116;8.424;2023-05-07T14:26:59;24.00;48.90
22290;DHT22;11313;50.116;8.424;2023-05-07T14:29:24;24.00;48.90
22290;DHT22;11313;50.116;8.424;2023-05-07T14:31:50;24.00;48.90
22290;DHT22;11313;50.116;8.424;2023-05-07T14:34:16;24.00;48.90
22290;DHT22;11313;50.116;8.424;2023-05-07T14:36:41;23.90;48.90
22290;DHT22;11313;50.116;8.424;2023-05-07T14:39:06;24.00;48.90
22290;DHT22;11313;50.116;8.424;2023-05-07T14:41:32;24.00;48.90
22290;DHT22;11313;50.116;8.424;2023-05-07T14:43:58;24.00;49.60
22290;DHT22;11313;50.116;8.424;2023-05-07T14:46:24;24.00;48.90
22290;DHT22;11313;50.116;8.424;2023-05-07T14:48:50;24.00;48.90
22290;DHT22;11313;50.116;8.424;2023-05-07T14:51:15;24.00;48.90
22290;DHT22;11313;50.116;8.424;2023-05-07T14:53:42;24.00;48.90
22290;DHT22;11313;50.116;8.424;2023-05-07T14:56:08;24.00;49.00
22290;DHT22;11313;50.116;8.424;2023-05-07T14:58:34;24.00;48.90
22290;DHT22;11313;50.116;8.424;2023-05-07T15:01:00;24.00;49.00
22290;DHT22;11313;50.116;8.424;2023-05-07T15:03:26;24.00;48.90
22290;DHT22;11313;50.116;8.424;2023-05-07T15:05:52;24.00;48.90
22290;DHT22;11313;50.116;8.424;2023-05-07T15:08:18;24.00;48.90
22290;DHT22;11313;50.116;8.424;2023-05-07T15:10:43;24.00;49.00
22290;DHT22;11313;50.116;8.424;2023-05-07T15:13:10;24.00;49.00
22290;DHT22;11313;50.116;8.424;2023-05-07T15:15:36;24.00;48.90
22290;DHT22;11313;50.116;8.424;2023-05-07T15:18:02;24.00;48.90
22290;DHT22;11313;50.116;8.424;2023-05-07T15:20:28;24.00;49.00
22290;DHT22;11313;50.116;8.424;2023-05-07T15:22:53;24.00;48.90
22290;DHT22;11313;50.116;8.424;2023-05-07T15:25:19;24.00;49.00
22290;DHT22;11313;50.116;8.424;2023-05-07T15:27:45;24.00;49.00
22290;DHT22;11313;50.116;8.424;2023-05-07T15:30:11;24.00;48.90
22290;DHT22;11313;50.116;8.424;2023-05-07T15:32:37;24.00;48.90
22290;DHT22;11313;50.116;8.424;2023-05-07T15:35:04;24.00;49.00
22290;DHT22;11313;50.116;8.424;2023-05-07T15:37:31;24.00;48.90
22290;DHT22;11313;50.116;8.424;2023-05-07T15:39:59;24.00;49.00
22290;DHT22;11313;50.116;8.424;2023-05-07T15:42:25;24.00;49.00
22290;DHT22;11313;50.116;8.424;2023-05-07T15:44:51;24.10;49.00